sensor_id;sensor_type;location;lat;lon;timestamp;P1;durP1;ratioP1;P2;durP2;ratioP2
75930;SDS011;64609;47.052;15.462;2024-02-04T00:01:29;34.72;;;21.80;;
75930;SDS011;64609;47.052;15.462;2024-02-04T00:03:54;31.73;;;22.13;;
75930;SDS011;64609;47.052;15.462;2024-02-04T00:06:20;32.33;;;21.35;;
75930;SDS011;64609;47.052;15.462;2024-02-04T00:08:46;35.15;;;20.75;;
75930;SDS011;64609;47.052;15.462;2024-02-04T00:11:11;33.20;;;23.05;;
75930;SDS011;64609;47.052;15.462;2024-02-04T00:13:37;35.28;;;23.83;;
75930;SDS011;64609;47.052;15.462;2024-02-04T00:16:03;30.92;;;21.98;;
75930;SDS011;64609;47.052;15.462;2024-02-04T00:18:30;34.55;;;21.77;;
75930;SDS011;64609;47.052;15.462;2024-02-04T00:20:56;31.83;;;21.33;;
75930;SDS011;64609;47.052;15.462;2024-02-04T00:23:21;31.27;;;21.23;;
75930;SDS011;64609;47.052;15.462;2024-02-04T00:25:47;32.83;;;22.30;;
75930;SDS011;64609;47.052;15.462;2024-02-04T00:28:12;29.77;;;20.75;;
75930;SDS011;64609;47.052;15.462;2024-02-04T00:30:38;31.27;;;20.42;;
75930;SDS011;64609;47.052;15.462;2024-02-04T00:33:04;28.63;;;20.67;;
75930;SDS011;64609;47.052;15.462;2024-02-04T00:35:30;29.90;;;20.05;;
75930;SDS011;64609;47.052;15.462;2024-02-04T00:37:55;30.45;;;20.52;;
75930;SDS011;64609;47.052;15.462;2024-02-04T00:40:21;29.10;;;19.75;;
75930;SDS011;64609;47.052;15.462;2024-02-04T00:42:47;26.75;;;18.50;;
75930;SDS011;64609;47.052;15.462;2024-02-04T00:45:12;31.15;;;19.65;;
75930;SDS011;64609;47.052;15.462;2024-02-04T00:47:38;30.70;;;20.25;;
75930;SDS011;64609;47.052;15.462;2024-02-04T00:50:04;26.30;;;19.85;;
75930;SDS011;64609;47.052;15.462;2024-02-04T00:52:30;27.50;;;19.42;;
75930;SDS011;64609;47.052;15.462;2024-02-04T00:54:55;32.28;;;20.02;;
75930;SDS011;64609;47.052;15.462;2024-02-04T00:57:21;30.85;;;20.17;;
75930;SDS011;64609;47.052;15.462;2024-02-04T00:59:47;28.05;;;19.30;;
75930;SDS011;64609;47.052;15.462;2024-02-04T01:02:12;28.08;;;19.50;;
75930;SDS011;64609;47.052;15.462;2024-02-04T01:04:38;28.67;;;18.73;;
75930;SDS011;64609;47.052;15.462;2024-02-04T01:07:04;27.52;;;19.58;;
75930;SDS011;64609;47.052;15.462;2024-02-04T01:09:29;29.33;;;18.98;;
75930;SDS011;64609;47.052;15.462;2024-02-04T01:11:55;27.90;;;19.20;;
75930;SDS011;64609;47.052;15.462;2024-02-04T01:14:21;26.05;;;18.38;;
75930;SDS011;64609;47.052;15.462;2024-02-04T01:16:46;29.52;;;19.55;;
75930;SDS011;64609;47.052;15.462;2024-02-04T01:19:12;26.23;;;17.52;;
75930;SDS011;64609;47.052;15.462;2024-02-04T01:21:38;26.73;;;18.48;;
75930;SDS011;64609;47.052;15.462;2024-02-04T01:24:03;26.60;;;17.50;;
75930;SDS011;64609;47.052;15.462;2024-02-04T01:26:29;25.00;;;19.20;;
75930;SDS011;64609;47.052;15.462;2024-02-04T01:28:55;25.00;;;17.42;;
75930;SDS011;64609;47.052;15.462;2024-02-04T01:31:20;27.88;;;18.33;;
75930;SDS011;64609;47.052;15.462;2024-02-04T01:33:46;27.25;;;19.02;;
75930;SDS011;64609;47.052;15.462;2024-02-04T01:36:11;26.15;;;18.55;;
75930;SDS011;64609;47.052;15.462;2024-02-04T01:38:37;26.10;;;18.75;;
75930;SDS011;64609;47.052;15.462;2024-02-04T01:41:03;26.67;;;19.00;;
75930;SDS011;64609;47.052;15.462;2024-02-04T01:43:28;22.33;;;16.73;;
75930;SDS011;64609;47.052;15.462;2024-02-04T01:45:54;28.00;;;17.58;;
75930;SDS011;64609;47.052;15.462;2024-02-04T01:48:21;26.77;;;19.02;;
75930;SDS011;64609;47.052;15.462;2024-02-04T01:50:47;24.67;;;17.48;;
75930;SDS011;64609;47.052;15.462;2024-02-04T01:53:15;24.83;;;17.38;;
75930;SDS011;64609;47.052;15.462;2024-02-04T01:55:44;22.63;;;17.20;;
75930;SDS011;64609;47.052;15.462;2024-02-04T01:58:10;22.95;;;17.63;;
75930;SDS011;64609;47.052;15.462;2024-02-04T02:00:35;24.55;;;18.48;;
75930;SDS011;64609;47.052;15.462;2024-02-04T02:03:01;24.27;;;17.80;;
75930;SDS011;64609;47.052;15.462;2024-02-04T02:05:30;25.13;;;18.30;;
75930;SDS011;64609;47.052;15.462;2024-02-04T02:07:56;25.15;;;19.27;;
75930;SDS011;64609;47.052;15.462;2024-02-04T02:10:21;24.58;;;18.38;;
75930;SDS011;64609;47.052;15.462;2024-02-04T02:12:54;24.73;;;18.70;;
75930;SDS011;64609;47.052;15.462;2024-02-04T02:15:25;25.95;;;20.23;;
75930;SDS011;64609;47.052;15.462;2024-02-04T02:17:58;27.70;;;19.52;;
75930;SDS011;64609;47.052;15.462;2024-02-04T02:20:30;27.05;;;19.08;;
75930;SDS011;64609;47.052;15.462;2024-02-04T02:23:21;23.27;;;18.70;;
75930;SDS011;64609;47.052;15.462;2024-02-04T02:25:48;25.42;;;18.75;;
75930;SDS011;64609;47.052;15.462;2024-02-04T02:28:16;23.17;;;18.42;;
75930;SDS011;64609;47.052;15.462;2024-02-04T02:30:42;25.77;;;18.95;;
75930;SDS011;64609;47.052;15.462;2024-02-04T02:33:07;26.77;;;19.23;;
75930;SDS011;64609;47.052;15.462;2024-02-04T02:35:34;26.05;;;19.40;;
75930;SDS011;64609;47.052;15.462;2024-02-04T02:40:47;25.65;;;18.58;;
75930;SDS011;64609;47.052;15.462;2024-02-04T02:43:23;27.30;;;18.67;;
75930;SDS011;64609;47.052;15.462;2024-02-04T02:45:50;21.73;;;18.02;;
75930;SDS011;64609;47.052;15.462;2024-02-04T02:48:17;26.38;;;19.75;;
75930;SDS011;64609;47.052;15.462;2024-02-04T02:50:43;28.05;;;19.63;;
75930;SDS011;64609;47.052;15.462;2024-02-04T02:53:08;25.40;;;19.52;;
75930;SDS011;64609;47.052;15.462;2024-02-04T02:55:34;24.27;;;18.80;;
75930;SDS011;64609;47.052;15.462;2024-02-04T02:58:00;29.20;;;19.17;;
75930;SDS011;64609;47.052;15.462;2024-02-04T03:00:25;27.58;;;19.98;;
75930;SDS011;64609;47.052;15.462;2024-02-04T03:02:51;24.92;;;18.75;;
75930;SDS011;64609;47.052;15.462;2024-02-04T03:05:17;25.10;;;18.80;;
75930;SDS011;64609;47.052;15.462;2024-02-04T03:07:43;24.45;;;19.33;;
75930;SDS011;64609;47.052;15.462;2024-02-04T03:10:08;26.42;;;19.50;;
75930;SDS011;64609;47.052;15.462;2024-02-04T03:12:34;23.65;;;18.85;;
75930;SDS011;64609;47.052;15.462;2024-02-04T03:15:00;27.13;;;18.75;;
75930;SDS011;64609;47.052;15.462;2024-02-04T03:17:26;26.55;;;19.42;;
75930;SDS011;64609;47.052;15.462;2024-02-04T03:19:52;24.92;;;19.17;;
75930;SDS011;64609;47.052;15.462;2024-02-04T03:22:19;26.73;;;18.67;;
75930;SDS011;64609;47.052;15.462;2024-02-04T03:24:46;23.73;;;18.75;;
75930;SDS011;64609;47.052;15.462;2024-02-04T03:27:12;24.23;;;18.63;;
75930;SDS011;64609;47.052;15.462;2024-02-04T03:29:38;24.35;;;18.20;;
75930;SDS011;64609;47.052;15.462;2024-02-04T03:32:04;23.10;;;17.65;;
75930;SDS011;64609;47.052;15.462;2024-02-04T03:34:29;23.88;;;18.35;;
75930;SDS011;64609;47.052;15.462;2024-02-04T03:36:55;24.90;;;18.83;;
75930;SDS011;64609;47.052;15.462;2024-02-04T03:39:21;24.67;;;19.00;;
75930;SDS011;64609;47.052;15.462;2024-02-04T03:41:46;22.92;;;18.20;;
75930;SDS011;64609;47.052;15.462;2024-02-04T03:44:12;25.80;;;18.77;;
75930;SDS011;64609;47.052;15.462;2024-02-04T03:46:37;23.20;;;18.60;;
75930;SDS011;64609;47.052;15.462;2024-02-04T03:49:05;27.75;;;19.15;;
75930;SDS011;64609;47.052;15.462;2024-02-04T03:51:32;24.38;;;18.83;;
75930;SDS011;64609;47.052;15.462;2024-02-04T03:53:58;25.00;;;19.38;;
75930;SDS011;64609;47.052;15.462;2024-02-04T03:56:23;22.92;;;18.00;;
75930;SDS011;64609;47.052;15.462;2024-02-04T03:58:49;23.83;;;18.73;;
75930;SDS011;64609;47.052;15.462;2024-02-04T04:01:15;22.15;;;18.17;;
75930;SDS011;64609;47.052;15.462;2024-02-04T04:03:41;23.20;;;18.55;;
75930;SDS011;64609;47.052;15.462;2024-02-04T04:06:08;25.48;;;19.20;;
75930;SDS011;64609;47.052;15.462;2024-02-04T04:08:34;25.20;;;18.88;;
75930;SDS011;64609;47.052;15.462;2024-02-04T04:11:00;27.38;;;20.67;;
75930;SDS011;64609;47.052;15.462;2024-02-04T04:13:26;26.75;;;20.63;;
75930;SDS011;64609;47.052;15.462;2024-02-04T04:15:51;27.05;;;20.23;;
75930;SDS011;64609;47.052;15.462;2024-02-04T04:18:17;26.10;;;19.42;;
75930;SDS011;64609;47.052;15.462;2024-02-04T04:20:42;27.88;;;20.15;;
75930;SDS011;64609;47.052;15.462;2024-02-04T04:23:08;25.55;;;20.00;;
75930;SDS011;64609;47.052;15.462;2024-02-04T04:25:34;31.30;;;19.13;;
75930;SDS011;64609;47.052;15.462;2024-02-04T04:27:59;25.40;;;18.83;;
75930;SDS011;64609;47.052;15.462;2024-02-04T04:30:25;25.65;;;19.88;;
75930;SDS011;64609;47.052;15.462;2024-02-04T04:32:51;24.45;;;18.42;;
75930;SDS011;64609;47.052;15.462;2024-02-04T04:35:16;30.60;;;18.42;;
75930;SDS011;64609;47.052;15.462;2024-02-04T04:37:42;25.70;;;19.80;;
75930;SDS011;64609;47.052;15.462;2024-02-04T04:40:08;27.10;;;20.33;;
75930;SDS011;64609;47.052;15.462;2024-02-04T04:42:34;25.88;;;18.75;;
75930;SDS011;64609;47.052;15.462;2024-02-04T04:45:00;24.80;;;20.15;;
75930;SDS011;64609;47.052;15.462;2024-02-04T04:47:25;23.38;;;17.95;;
75930;SDS011;64609;47.052;15.462;2024-02-04T04:49:51;27.55;;;20.15;;
75930;SDS011;64609;47.052;15.462;2024-02-04T04:52:16;27.85;;;21.33;;
75930;SDS011;64609;47.052;15.462;2024-02-04T04:54:42;27.52;;;20.73;;
75930;SDS011;64609;47.052;15.462;2024-02-04T04:57:08;31.58;;;21.42;;
75930;SDS011;64609;47.052;15.462;2024-02-04T04:59:33;27.70;;;20.52;;
75930;SDS011;64609;47.052;15.462;2024-02-04T05:02:01;27.48;;;20.52;;
75930;SDS011;64609;47.052;15.462;2024-02-04T05:04:27;27.85;;;20.45;;
75930;SDS011;64609;47.052;15.462;2024-02-04T05:06:52;30.98;;;21.55;;
75930;SDS011;64609;47.052;15.462;2024-02-04T05:09:18;30.90;;;21.52;;
75930;SDS011;64609;47.052;15.462;2024-02-04T05:11:44;26.67;;;20.58;;
75930;SDS011;64609;47.052;15.462;2024-02-04T05:14:09;30.83;;;21.92;;
75930;SDS011;64609;47.052;15.462;2024-02-04T05:16:35;30.83;;;21.73;;
75930;SDS011;64609;47.052;15.462;2024-02-04T05:19:01;32.25;;;22.23;;
75930;SDS011;64609;47.052;15.462;2024-02-04T05:21:27;27.65;;;21.33;;
75930;SDS011;64609;47.052;15.462;2024-02-04T05:23:53;28.10;;;21.35;;
75930;SDS011;64609;47.052;15.462;2024-02-04T05:26:19;31.75;;;22.30;;
75930;SDS011;64609;47.052;15.462;2024-02-04T05:28:44;30.25;;;23.13;;
75930;SDS011;64609;47.052;15.462;2024-02-04T05:31:10;35.13;;;24.42;;
75930;SDS011;64609;47.052;15.462;2024-02-04T05:33:36;33.53;;;23.98;;
75930;SDS011;64609;47.052;15.462;2024-02-04T05:36:01;30.67;;;23.92;;
75930;SDS011;64609;47.052;15.462;2024-02-04T05:38:28;34.42;;;26.02;;
75930;SDS011;64609;47.052;15.462;2024-02-04T05:40:53;36.88;;;25.92;;
75930;SDS011;64609;47.052;15.462;2024-02-04T05:43:19;36.22;;;26.27;;
75930;SDS011;64609;47.052;15.462;2024-02-04T05:45:45;34.63;;;25.67;;
75930;SDS011;64609;47.052;15.462;2024-02-04T05:48:10;39.83;;;24.40;;
75930;SDS011;64609;47.052;15.462;2024-02-04T05:50:36;37.70;;;26.38;;
75930;SDS011;64609;47.052;15.462;2024-02-04T05:53:02;36.92;;;26.27;;
75930;SDS011;64609;47.052;15.462;2024-02-04T05:55:28;35.78;;;26.98;;
75930;SDS011;64609;47.052;15.462;2024-02-04T05:57:54;42.33;;;28.27;;
75930;SDS011;64609;47.052;15.462;2024-02-04T06:00:20;39.83;;;27.48;;
75930;SDS011;64609;47.052;15.462;2024-02-04T06:02:45;43.22;;;27.70;;
75930;SDS011;64609;47.052;15.462;2024-02-04T06:05:12;39.75;;;27.83;;
75930;SDS011;64609;47.052;15.462;2024-02-04T06:07:38;43.10;;;27.83;;
75930;SDS011;64609;47.052;15.462;2024-02-04T06:10:04;42.03;;;28.10;;
75930;SDS011;64609;47.052;15.462;2024-02-04T06:12:30;40.33;;;28.73;;
75930;SDS011;64609;47.052;15.462;2024-02-04T06:14:55;38.72;;;27.73;;
75930;SDS011;64609;47.052;15.462;2024-02-04T06:17:21;35.35;;;26.77;;
75930;SDS011;64609;47.052;15.462;2024-02-04T06:19:47;41.17;;;26.85;;
75930;SDS011;64609;47.052;15.462;2024-02-04T06:22:13;38.97;;;27.55;;
75930;SDS011;64609;47.052;15.462;2024-02-04T06:24:40;43.88;;;28.92;;
75930;SDS011;64609;47.052;15.462;2024-02-04T06:27:06;37.92;;;26.58;;
75930;SDS011;64609;47.052;15.462;2024-02-04T06:29:33;41.67;;;27.20;;
75930;SDS011;64609;47.052;15.462;2024-02-04T06:31:58;38.80;;;26.33;;
75930;SDS011;64609;47.052;15.462;2024-02-04T06:34:24;33.95;;;25.15;;
75930;SDS011;64609;47.052;15.462;2024-02-04T06:36:50;35.55;;;25.90;;
75930;SDS011;64609;47.052;15.462;2024-02-04T06:39:16;37.75;;;26.58;;
75930;SDS011;64609;47.052;15.462;2024-02-04T06:41:41;40.92;;;27.38;;
75930;SDS011;64609;47.052;15.462;2024-02-04T06:44:07;36.53;;;26.40;;
75930;SDS011;64609;47.052;15.462;2024-02-04T06:46:33;38.88;;;25.30;;
75930;SDS011;64609;47.052;15.462;2024-02-04T06:48:59;39.10;;;26.45;;
75930;SDS011;64609;47.052;15.462;2024-02-04T06:51:24;35.03;;;25.90;;
75930;SDS011;64609;47.052;15.462;2024-02-04T06:53:50;35.60;;;25.23;;
75930;SDS011;64609;47.052;15.462;2024-02-04T06:56:16;38.42;;;25.65;;
75930;SDS011;64609;47.052;15.462;2024-02-04T06:58:41;35.00;;;24.92;;
75930;SDS011;64609;47.052;15.462;2024-02-04T07:01:08;36.47;;;25.55;;
75930;SDS011;64609;47.052;15.462;2024-02-04T07:03:33;35.38;;;25.52;;
75930;SDS011;64609;47.052;15.462;2024-02-04T07:05:59;32.10;;;24.33;;
75930;SDS011;64609;47.052;15.462;2024-02-04T07:08:25;34.83;;;25.17;;
75930;SDS011;64609;47.052;15.462;2024-02-04T07:10:51;36.40;;;23.75;;
75930;SDS011;64609;47.052;15.462;2024-02-04T07:13:18;35.95;;;24.30;;
75930;SDS011;64609;47.052;15.462;2024-02-04T07:15:44;52.10;;;31.92;;
75930;SDS011;64609;47.052;15.462;2024-02-04T07:18:10;39.90;;;25.20;;
75930;SDS011;64609;47.052;15.462;2024-02-04T07:20:36;34.00;;;24.48;;
75930;SDS011;64609;47.052;15.462;2024-02-04T07:23:02;40.35;;;25.83;;
75930;SDS011;64609;47.052;15.462;2024-02-04T07:25:29;34.00;;;25.02;;
75930;SDS011;64609;47.052;15.462;2024-02-04T07:27:54;37.47;;;25.58;;
75930;SDS011;64609;47.052;15.462;2024-02-04T07:30:21;31.67;;;23.25;;
75930;SDS011;64609;47.052;15.462;2024-02-04T07:32:47;36.85;;;25.67;;
75930;SDS011;64609;47.052;15.462;2024-02-04T07:35:13;33.22;;;25.15;;
75930;SDS011;64609;47.052;15.462;2024-02-04T07:37:38;36.65;;;25.52;;
75930;SDS011;64609;47.052;15.462;2024-02-04T07:40:04;37.70;;;26.42;;
75930;SDS011;64609;47.052;15.462;2024-02-04T07:42:31;37.88;;;26.33;;
75930;SDS011;64609;47.052;15.462;2024-02-04T07:44:57;40.13;;;26.33;;
75930;SDS011;64609;47.052;15.462;2024-02-04T07:47:22;36.38;;;26.17;;
75930;SDS011;64609;47.052;15.462;2024-02-04T07:49:49;34.83;;;26.15;;
75930;SDS011;64609;47.052;15.462;2024-02-04T07:52:15;38.30;;;26.05;;
75930;SDS011;64609;47.052;15.462;2024-02-04T07:54:40;34.97;;;25.92;;
75930;SDS011;64609;47.052;15.462;2024-02-04T07:57:08;38.10;;;26.45;;
75930;SDS011;64609;47.052;15.462;2024-02-04T07:59:34;40.65;;;26.15;;
75930;SDS011;64609;47.052;15.462;2024-02-04T08:02:00;36.83;;;26.55;;
75930;SDS011;64609;47.052;15.462;2024-02-04T08:04:26;36.45;;;26.05;;
75930;SDS011;64609;47.052;15.462;2024-02-04T08:06:51;40.88;;;26.05;;
75930;SDS011;64609;47.052;15.462;2024-02-04T08:09:18;38.00;;;26.25;;
75930;SDS011;64609;47.052;15.462;2024-02-04T08:11:43;34.75;;;25.05;;
75930;SDS011;64609;47.052;15.462;2024-02-04T08:14:09;34.65;;;24.85;;
75930;SDS011;64609;47.052;15.462;2024-02-04T08:16:35;34.22;;;25.38;;
75930;SDS011;64609;47.052;15.462;2024-02-04T08:19:00;38.03;;;26.95;;
75930;SDS011;64609;47.052;15.462;2024-02-04T08:21:26;33.95;;;25.05;;
75930;SDS011;64609;47.052;15.462;2024-02-04T08:23:52;41.85;;;30.17;;
75930;SDS011;64609;47.052;15.462;2024-02-04T08:26:17;34.78;;;25.70;;
75930;SDS011;64609;47.052;15.462;2024-02-04T08:28:43;34.42;;;23.85;;
75930;SDS011;64609;47.052;15.462;2024-02-04T08:31:09;30.25;;;22.77;;
75930;SDS011;64609;47.052;15.462;2024-02-04T08:33:34;30.13;;;20.73;;
75930;SDS011;64609;47.052;15.462;2024-02-04T08:36:00;28.10;;;21.33;;
75930;SDS011;64609;47.052;15.462;2024-02-04T08:38:25;28.42;;;19.45;;
75930;SDS011;64609;47.052;15.462;2024-02-04T08:40:51;23.67;;;18.63;;
75930;SDS011;64609;47.052;15.462;2024-02-04T08:43:17;31.05;;;20.35;;
75930;SDS011;64609;47.052;15.462;2024-02-04T08:45:42;28.90;;;18.83;;
75930;SDS011;64609;47.052;15.462;2024-02-04T08:48:08;26.85;;;18.77;;
75930;SDS011;64609;47.052;15.462;2024-02-04T08:50:34;29.38;;;20.08;;
75930;SDS011;64609;47.052;15.462;2024-02-04T08:52:59;27.23;;;19.88;;
75930;SDS011;64609;47.052;15.462;2024-02-04T08:55:25;31.42;;;20.05;;
75930;SDS011;64609;47.052;15.462;2024-02-04T08:57:51;31.48;;;20.35;;
75930;SDS011;64609;47.052;15.462;2024-02-04T09:00:18;31.75;;;20.63;;
75930;SDS011;64609;47.052;15.462;2024-02-04T09:02:45;35.17;;;21.88;;
75930;SDS011;64609;47.052;15.462;2024-02-04T09:05:13;36.20;;;22.17;;
75930;SDS011;64609;47.052;15.462;2024-02-04T09:07:41;37.92;;;22.88;;
75930;SDS011;64609;47.052;15.462;2024-02-04T09:10:07;35.67;;;22.85;;
75930;SDS011;64609;47.052;15.462;2024-02-04T09:12:33;36.17;;;24.20;;
75930;SDS011;64609;47.052;15.462;2024-02-04T09:14:58;35.88;;;23.90;;
75930;SDS011;64609;47.052;15.462;2024-02-04T09:17:24;31.88;;;24.27;;
75930;SDS011;64609;47.052;15.462;2024-02-04T09:19:49;35.40;;;23.42;;
75930;SDS011;64609;47.052;15.462;2024-02-04T09:22:15;29.52;;;23.40;;
75930;SDS011;64609;47.052;15.462;2024-02-04T09:24:41;29.90;;;23.98;;
75930;SDS011;64609;47.052;15.462;2024-02-04T09:27:07;30.17;;;23.35;;
75930;SDS011;64609;47.052;15.462;2024-02-04T09:29:32;30.88;;;22.42;;
75930;SDS011;64609;47.052;15.462;2024-02-04T09:31:58;31.45;;;22.95;;
75930;SDS011;64609;47.052;15.462;2024-02-04T09:34:24;30.98;;;21.38;;
75930;SDS011;64609;47.052;15.462;2024-02-04T09:36:49;29.42;;;21.35;;
75930;SDS011;64609;47.052;15.462;2024-02-04T09:39:18;29.35;;;21.90;;
75930;SDS011;64609;47.052;15.462;2024-02-04T09:41:44;28.33;;;21.48;;
75930;SDS011;64609;47.052;15.462;2024-02-04T09:44:09;28.60;;;21.63;;
75930;SDS011;64609;47.052;15.462;2024-02-04T09:46:36;26.15;;;18.02;;
75930;SDS011;64609;47.052;15.462;2024-02-04T09:49:02;24.33;;;18.88;;
75930;SDS011;64609;47.052;15.462;2024-02-04T09:51:29;25.10;;;17.95;;
75930;SDS011;64609;47.052;15.462;2024-02-04T09:53:54;25.70;;;17.92;;
75930;SDS011;64609;47.052;15.462;2024-02-04T09:56:26;29.25;;;17.38;;
75930;SDS011;64609;47.052;15.462;2024-02-04T09:58:52;29.63;;;16.52;;
75930;SDS011;64609;47.052;15.462;2024-02-04T10:01:18;36.65;;;16.90;;
75930;SDS011;64609;47.052;15.462;2024-02-04T10:03:46;26.45;;;17.77;;
75930;SDS011;64609;47.052;15.462;2024-02-04T10:06:12;26.30;;;17.98;;
75930;SDS011;64609;47.052;15.462;2024-02-04T10:08:38;30.10;;;18.85;;
75930;SDS011;64609;47.052;15.462;2024-02-04T10:11:04;25.88;;;18.00;;
75930;SDS011;64609;47.052;15.462;2024-02-04T10:13:29;29.55;;;16.92;;
75930;SDS011;64609;47.052;15.462;2024-02-04T10:15:55;29.27;;;18.00;;
75930;SDS011;64609;47.052;15.462;2024-02-04T10:18:21;23.17;;;17.10;;
75930;SDS011;64609;47.052;15.462;2024-02-04T10:20:47;27.27;;;17.67;;
75930;SDS011;64609;47.052;15.462;2024-02-04T10:23:13;26.88;;;16.55;;
75930;SDS011;64609;47.052;15.462;2024-02-04T10:25:39;28.35;;;17.27;;
75930;SDS011;64609;47.052;15.462;2024-02-04T10:28:05;27.77;;;16.45;;
75930;SDS011;64609;47.052;15.462;2024-02-04T10:30:31;24.05;;;15.45;;
75930;SDS011;64609;47.052;15.462;2024-02-04T10:32:57;21.88;;;15.40;;
75930;SDS011;64609;47.052;15.462;2024-02-04T10:35:24;20.65;;;15.32;;
75930;SDS011;64609;47.052;15.462;2024-02-04T10:37:50;28.30;;;14.93;;
75930;SDS011;64609;47.052;15.462;2024-02-04T10:40:16;20.63;;;12.73;;
75930;SDS011;64609;47.052;15.462;2024-02-04T10:42:43;20.88;;;12.63;;
75930;SDS011;64609;47.052;15.462;2024-02-04T10:45:09;19.83;;;13.25;;
75930;SDS011;64609;47.052;15.462;2024-02-04T10:47:39;19.55;;;13.45;;
75930;SDS011;64609;47.052;15.462;2024-02-04T10:50:05;26.42;;;12.88;;
75930;SDS011;64609;47.052;15.462;2024-02-04T10:52:38;21.60;;;13.15;;
75930;SDS011;64609;47.052;15.462;2024-02-04T10:55:08;18.80;;;11.60;;
75930;SDS011;64609;47.052;15.462;2024-02-04T10:57:35;20.08;;;12.38;;
75930;SDS011;64609;47.052;15.462;2024-02-04T11:00:02;21.25;;;12.05;;
75930;SDS011;64609;47.052;15.462;2024-02-04T11:02:33;18.63;;;11.32;;
75930;SDS011;64609;47.052;15.462;2024-02-04T11:04:59;20.35;;;12.70;;
75930;SDS011;64609;47.052;15.462;2024-02-04T11:07:28;24.85;;;12.80;;
75930;SDS011;64609;47.052;15.462;2024-02-04T11:09:57;17.17;;;11.30;;
75930;SDS011;64609;47.052;15.462;2024-02-04T11:12:23;21.33;;;10.63;;
75930;SDS011;64609;47.052;15.462;2024-02-04T11:14:51;18.77;;;10.90;;
75930;SDS011;64609;47.052;15.462;2024-02-04T11:28:08;18.15;;;11.45;;
75930;SDS011;64609;47.052;15.462;2024-02-04T11:30:36;13.00;;;10.95;;
75930;SDS011;64609;47.052;15.462;2024-02-04T11:33:05;23.05;;;11.35;;
75930;SDS011;64609;47.052;15.462;2024-02-04T11:35:35;19.02;;;10.43;;
75930;SDS011;64609;47.052;15.462;2024-02-04T11:38:02;19.80;;;10.93;;
75930;SDS011;64609;47.052;15.462;2024-02-04T11:40:35;23.05;;;11.13;;
75930;SDS011;64609;47.052;15.462;2024-02-04T11:43:11;18.95;;;10.85;;
75930;SDS011;64609;47.052;15.462;2024-02-04T11:45:39;22.13;;;10.48;;
75930;SDS011;64609;47.052;15.462;2024-02-04T11:48:09;20.48;;;10.70;;
75930;SDS011;64609;47.052;15.462;2024-02-04T11:50:35;15.40;;;10.88;;
75930;SDS011;64609;47.052;15.462;2024-02-04T11:53:04;23.10;;;11.77;;
75930;SDS011;64609;47.052;15.462;2024-02-04T11:55:31;19.00;;;10.80;;
75930;SDS011;64609;47.052;15.462;2024-02-04T11:57:57;19.38;;;10.75;;
75930;SDS011;64609;47.052;15.462;2024-02-04T12:00:24;17.50;;;10.50;;
75930;SDS011;64609;47.052;15.462;2024-02-04T12:03:03;20.27;;;8.73;;
75930;SDS011;64609;47.052;15.462;2024-02-04T12:05:33;14.68;;;7.97;;
75930;SDS011;64609;47.052;15.462;2024-02-04T12:08:04;16.35;;;8.27;;
75930;SDS011;64609;47.052;15.462;2024-02-04T12:10:31;14.65;;;7.97;;
75930;SDS011;64609;47.052;15.462;2024-02-04T12:13:07;14.90;;;8.70;;
75930;SDS011;64609;47.052;15.462;2024-02-04T12:15:35;14.27;;;8.75;;
75930;SDS011;64609;47.052;15.462;2024-02-04T12:18:07;15.35;;;9.57;;
75930;SDS011;64609;47.052;15.462;2024-02-04T12:20:34;14.48;;;9.00;;
75930;SDS011;64609;47.052;15.462;2024-02-04T12:23:02;18.77;;;8.38;;
75930;SDS011;64609;47.052;15.462;2024-02-04T12:25:28;13.77;;;9.55;;
75930;SDS011;64609;47.052;15.462;2024-02-04T12:27:56;15.75;;;9.50;;
75930;SDS011;64609;47.052;15.462;2024-02-04T12:30:23;16.60;;;9.70;;
75930;SDS011;64609;47.052;15.462;2024-02-04T12:32:58;15.25;;;7.78;;
75930;SDS011;64609;47.052;15.462;2024-02-04T12:35:25;14.57;;;8.00;;
75930;SDS011;64609;47.052;15.462;2024-02-04T12:37:52;14.65;;;7.78;;
75930;SDS011;64609;47.052;15.462;2024-02-04T12:40:22;13.57;;;7.68;;
75930;SDS011;64609;47.052;15.462;2024-02-04T12:42:58;11.38;;;6.55;;
75930;SDS011;64609;47.052;15.462;2024-02-04T12:45:28;11.55;;;6.93;;
75930;SDS011;64609;47.052;15.462;2024-02-04T12:47:57;13.13;;;6.10;;
75930;SDS011;64609;47.052;15.462;2024-02-04T12:50:24;10.38;;;5.50;;
75930;SDS011;64609;47.052;15.462;2024-02-04T12:53:06;10.63;;;6.15;;
75930;SDS011;64609;47.052;15.462;2024-02-04T12:55:36;12.77;;;5.57;;
75930;SDS011;64609;47.052;15.462;2024-02-04T12:58:05;9.35;;;5.47;;
75930;SDS011;64609;47.052;15.462;2024-02-04T13:00:35;9.63;;;4.63;;
75930;SDS011;64609;47.052;15.462;2024-02-04T13:03:02;10.38;;;4.75;;
75930;SDS011;64609;47.052;15.462;2024-02-04T13:05:29;8.88;;;4.82;;
75930;SDS011;64609;47.052;15.462;2024-02-04T13:07:58;6.82;;;4.65;;
75930;SDS011;64609;47.052;15.462;2024-02-04T13:10:27;9.68;;;4.25;;
75930;SDS011;64609;47.052;15.462;2024-02-04T13:12:57;7.40;;;4.25;;
75930;SDS011;64609;47.052;15.462;2024-02-04T13:15:27;10.20;;;4.15;;
75930;SDS011;64609;47.052;15.462;2024-02-04T13:17:54;9.25;;;4.57;;
75930;SDS011;64609;47.052;15.462;2024-02-04T13:20:20;9.05;;;4.30;;
75930;SDS011;64609;47.052;15.462;2024-02-04T13:22:46;6.97;;;4.18;;
75930;SDS011;64609;47.052;15.462;2024-02-04T13:25:11;16.00;;;4.38;;
75930;SDS011;64609;47.052;15.462;2024-02-04T13:27:37;8.73;;;4.57;;
75930;SDS011;64609;47.052;15.462;2024-02-04T13:30:03;10.60;;;4.63;;
75930;SDS011;64609;47.052;15.462;2024-02-04T13:32:29;8.93;;;4.18;;
75930;SDS011;64609;47.052;15.462;2024-02-04T13:34:54;10.32;;;4.60;;
75930;SDS011;64609;47.052;15.462;2024-02-04T13:37:20;8.75;;;4.60;;
75930;SDS011;64609;47.052;15.462;2024-02-04T13:39:46;9.13;;;4.50;;
75930;SDS011;64609;47.052;15.462;2024-02-04T13:42:12;11.35;;;4.65;;
75930;SDS011;64609;47.052;15.462;2024-02-04T13:44:38;8.18;;;3.65;;
75930;SDS011;64609;47.052;15.462;2024-02-04T13:47:03;8.32;;;4.13;;
75930;SDS011;64609;47.052;15.462;2024-02-04T13:49:29;8.38;;;3.90;;
75930;SDS011;64609;47.052;15.462;2024-02-04T13:51:55;8.90;;;4.28;;
75930;SDS011;64609;47.052;15.462;2024-02-04T13:54:20;7.00;;;4.32;;
75930;SDS011;64609;47.052;15.462;2024-02-04T13:56:46;9.40;;;4.05;;
75930;SDS011;64609;47.052;15.462;2024-02-04T13:59:11;7.82;;;3.83;;
75930;SDS011;64609;47.052;15.462;2024-02-04T14:01:37;7.53;;;4.45;;
75930;SDS011;64609;47.052;15.462;2024-02-04T14:04:03;10.18;;;4.35;;
75930;SDS011;64609;47.052;15.462;2024-02-04T14:06:29;11.23;;;4.05;;
75930;SDS011;64609;47.052;15.462;2024-02-04T14:08:54;7.60;;;3.72;;
75930;SDS011;64609;47.052;15.462;2024-02-04T14:11:20;6.32;;;3.47;;
75930;SDS011;64609;47.052;15.462;2024-02-04T14:13:45;9.52;;;3.97;;
75930;SDS011;64609;47.052;15.462;2024-02-04T14:16:11;7.57;;;3.63;;
75930;SDS011;64609;47.052;15.462;2024-02-04T14:18:37;12.70;;;3.83;;
75930;SDS011;64609;47.052;15.462;2024-02-04T14:21:03;6.68;;;3.47;;